Portada
METAR-TAF:

METAR-TAF

Aeropuertos :

Aeropuerto de Pisa

Pisa, Italia

latitud: 43-41N, longitud: 010-23E, altitud: 2 m

Observación

El informe se hizo hace 24 minutos, a las 06:45 UTC
Viento 9 kt del este
Temperatura 8°C
Humedad 76%
Presión 1017 hPa
Visibilidad 10 km o más
Nubes dispersas a una altura de 8000 ft

METAR: LIRP 160645Z 10009KT 9999 SCT080 08/04 Q1017 NOSIG

Hora: 09:09 (07:09 UTC)

Pronóstico

El informe se hizo hace 2 horas y 9 minutos, a las 05:00 UTC
Pronóstico válido del 16 a las 06 UTC al 17 a las 06 UTC
Viento 10 kt del sureste
Visibilidad 10 km o más
Nubes dispersas a una altura de 6000 ft

TAF: LIRP 160500Z 1606/1706 13010KT 9999 SCT060

Observaciones y pronósticos meteorológicos de más de 4000 aeropuertos (mensajes METAR y TAF).

Los puntos amarillos y rojos representan las estaciones disponibles.

Ponga el ratón en el punto deseado para ver el nombre de la estación.

Haga clic para ver las observaciones y los pronósticos meteorológicos.

Para cambiar el mapa : haga clic en los botones verdes con una cruz de color negro para hacer un zoom, en el botón verde con un guión para alejar o en las flechas verdes para mapas adyacentes.


METAR-TAF: